GB-0380 weather

Devon and Somerset Gliding Club
England, United Kingdom

Public forecast

Using degrees Celsius for public forecast. Weather courtesy of forecast.io.

METAR (pilot weather report)

Closest report is Exeter International Airport, 8.8 nm (16.3 km) SW. Retrieved 2019/07/20 08:20 UTC (35 minutes ago):

EGTE 200820Z 25013KT 220V280 9999 FEW020 SCT038 18/13 Q1007

TAF (pilot weather forecast)

Forecast is more than 12 hours old.

Closest forecast is Exeter International Airport, 8.8 nm (16.3 km) SW. Retrieved 2012/04/19 12:15 UTC (7 years ago):

TAF TAF EGTE 191401Z 1912/1924 31016KT 9999 SCT030 SCT035 PROB40 TEMPO 1915/1918 7000 SHRA BKN014